Terminal Aerodrome Forecast
Issued by NWS Charleston, SC

Home | Current Version | Previous Version | Text Only | Print | Product List | Glossary On
Versions: 1 2 3 4 5 6 7 8 9 10 11 12 13 14 15 16 17 18 19 20 21 22
462
FTUS42 KCHS 062323
TAFCHS
TAF
KCHS 062323Z 0700/0724 02010KT P6SM -RA OVC035
     FM070300 02017G23KT 6SM -RA BR SCT015 OVC025
     FM070600 01019G26KT 4SM RA BR SCT006 OVC010
     FM071300 36020G27KT 4SM RA BR OVC006
     FM072000 33020G27KT P6SM SCT012 OVC025=

USA.gov is the U.S. government's official web portal to all federal, state and local government web resources and services.